createdAt,value
2019-05-18T00:01:29.584Z,99750.91
2019-05-18T00:03:57.341Z,99735.05
2019-05-18T00:06:25.054Z,99748.84
2019-05-18T00:08:52.703Z,99736.00
2019-05-18T00:11:20.349Z,99735.44
2019-05-18T00:13:48.033Z,99734.59
2019-05-18T00:16:15.712Z,99737.52
2019-05-18T00:18:43.433Z,99737.84
2019-05-18T00:21:11.156Z,99739.06
2019-05-18T00:23:38.833Z,99737.91
2019-05-18T00:26:06.475Z,99735.45
2019-05-18T00:28:34.140Z,99736.83
2019-05-18T00:31:01.918Z,99731.23
2019-05-18T00:33:29.758Z,99732.91
2019-05-18T00:35:57.408Z,99737.69
2019-05-18T00:38:25.054Z,99736.55
2019-05-18T00:40:52.712Z,99741.25
2019-05-18T00:43:20.359Z,99740.45
2019-05-18T00:45:48.013Z,99739.29
2019-05-18T00:48:15.660Z,99739.92
2019-05-18T00:50:43.344Z,99737.88
2019-05-18T00:53:10.997Z,99747.64
2019-05-18T00:55:38.653Z,99754.59
2019-05-18T00:58:06.299Z,99753.30
2019-05-18T01:00:33.947Z,99757.23
2019-05-18T01:03:01.614Z,99749.09
2019-05-18T01:05:29.458Z,99755.11
2019-05-18T01:07:57.181Z,99751.90
2019-05-18T01:10:24.841Z,99751.41
2019-05-18T01:12:52.488Z,99748.91
2019-05-18T01:15:20.153Z,99743.29
2019-05-18T01:17:56.931Z,99744.33
2019-05-18T01:20:17.166Z,99750.87
2019-05-18T01:22:44.826Z,99745.85
2019-05-18T01:25:12.491Z,99743.83
2019-05-18T01:27:40.148Z,99752.45
2019-05-18T01:30:07.878Z,99753.09
2019-05-18T01:32:35.560Z,99746.87
2019-05-18T01:35:03.249Z,99745.95
2019-05-18T01:37:30.906Z,99743.78
2019-05-18T01:39:58.552Z,99751.59
2019-05-18T01:42:26.200Z,99745.89
2019-05-18T01:44:53.853Z,99749.47
2019-05-18T01:47:21.520Z,99752.55
2019-05-18T01:49:49.221Z,99749.75
2019-05-18T01:52:16.968Z,99757.80
2019-05-18T01:54:44.622Z,99752.13
2019-05-18T01:57:12.267Z,99752.83
2019-05-18T01:59:39.932Z,99751.14
2019-05-18T02:02:07.591Z,99753.39
2019-05-18T02:04:35.279Z,99752.13
2019-05-18T02:07:03.015Z,99748.55
2019-05-18T02:09:30.726Z,99746.86
2019-05-18T02:11:58.375Z,99748.84
2019-05-18T02:14:26.089Z,99748.33
2019-05-18T02:16:53.975Z,99742.52
2019-05-18T02:19:24.446Z,99742.52
2019-05-18T02:21:50.990Z,99740.41
2019-05-18T02:24:18.633Z,99739.91
2019-05-18T02:26:46.332Z,99742.45
2019-05-18T02:29:14.020Z,99750.78
2019-05-18T02:31:41.693Z,99743.30
2019-05-18T02:34:09.361Z,99747.97
2019-05-18T02:36:37.071Z,99746.65
2019-05-18T02:39:06.268Z,99741.81
2019-05-18T02:41:33.981Z,99741.24
2019-05-18T02:44:01.627Z,99739.40
2019-05-18T02:46:29.302Z,99745.79
2019-05-18T02:48:56.944Z,99741.76
2019-05-18T02:51:24.603Z,99740.11
2019-05-18T02:53:52.255Z,99743.92
2019-05-18T02:56:19.918Z,99739.96
2019-05-18T02:58:47.576Z,99730.83
2019-05-18T03:01:15.230Z,99724.22
2019-05-18T03:03:42.879Z,99722.89
2019-05-18T03:06:10.644Z,99716.17
2019-05-18T03:08:38.318Z,99712.62
2019-05-18T03:11:05.971Z,99703.81
2019-05-18T03:13:33.621Z,99704.27
2019-05-18T03:16:01.284Z,99712.72
2019-05-18T03:18:28.958Z,99710.67
2019-05-18T03:20:56.693Z,99712.95
2019-05-18T03:23:24.345Z,99724.67
2019-05-18T03:25:52.002Z,99729.63
2019-05-18T03:28:19.731Z,99728.58
2019-05-18T03:30:47.546Z,99732.38
2019-05-18T03:33:15.242Z,99726.89
2019-05-18T03:35:42.896Z,99723.14
2019-05-18T03:38:10.541Z,99723.30
2019-05-18T03:40:38.226Z,99720.36
2019-05-18T03:43:05.875Z,99726.02
2019-05-18T03:45:33.551Z,99722.59
2019-05-18T03:48:01.207Z,99722.12
2019-05-18T03:50:28.875Z,99722.41
2019-05-18T03:52:56.992Z,99723.02
2019-05-18T03:55:24.644Z,99723.09
2019-05-18T03:57:52.289Z,99721.48
2019-05-18T04:00:19.930Z,99723.11
2019-05-18T04:02:47.601Z,99718.33
2019-05-18T04:05:15.247Z,99721.83
2019-05-18T04:07:42.971Z,99721.97
2019-05-18T04:10:10.764Z,99723.57
2019-05-18T04:12:38.410Z,99718.36
2019-05-18T04:15:06.054Z,99717.70
2019-05-18T04:17:33.713Z,99723.83
2019-05-18T04:20:01.393Z,99719.89
2019-05-18T04:22:29.063Z,99719.47
2019-05-18T04:24:56.732Z,99722.34
2019-05-18T04:27:24.409Z,99714.35
2019-05-18T04:29:52.056Z,99709.72
2019-05-18T04:32:19.732Z,99711.67
2019-05-18T04:34:47.395Z,99701.13
2019-05-18T04:37:15.052Z,99705.80
2019-05-18T04:39:42.703Z,99703.50
2019-05-18T04:42:10.365Z,99701.92
2019-05-18T04:44:38.037Z,99701.00
2019-05-18T04:47:05.712Z,99699.59
2019-05-18T04:49:33.380Z,99699.27
2019-05-18T04:52:01.028Z,99696.80
2019-05-18T04:54:28.674Z,99693.88
2019-05-18T04:56:56.356Z,99698.44
2019-05-18T04:59:23.996Z,99690.06
2019-05-18T05:01:51.675Z,99686.78
2019-05-18T05:04:19.318Z,99683.16
2019-05-18T05:06:46.973Z,99684.60
2019-05-18T05:09:14.619Z,99678.66
2019-05-18T05:11:42.279Z,99683.66
2019-05-18T05:14:09.925Z,99674.95
2019-05-18T05:16:37.583Z,99676.30
2019-05-18T05:19:08.530Z,99676.27
2019-05-18T05:21:34.662Z,99676.59
2019-05-18T05:24:02.323Z,99679.67
2019-05-18T05:26:29.987Z,99677.66
2019-05-18T05:28:57.633Z,99673.95
2019-05-18T05:31:25.294Z,99679.23
2019-05-18T05:33:53.008Z,99673.62
2019-05-18T05:36:20.684Z,99678.69
2019-05-18T05:38:48.328Z,99667.50
2019-05-18T05:41:16.851Z,99666.78
2019-05-18T05:43:44.734Z,99665.13
2019-05-18T05:46:12.396Z,99669.02
2019-05-18T05:48:40.120Z,99666.16
2019-05-18T05:51:07.775Z,99658.66
2019-05-18T05:53:35.444Z,99665.99
2019-05-18T05:56:03.147Z,99660.11
2019-05-18T05:58:30.834Z,99659.97
2019-05-18T06:00:58.493Z,99656.38
2019-05-18T06:03:26.155Z,99657.06
2019-05-18T06:05:53.833Z,99655.10
2019-05-18T06:08:21.538Z,99646.27
2019-05-18T06:10:49.201Z,99650.77
2019-05-18T06:13:16.914Z,99647.75
2019-05-18T06:15:44.591Z,99644.09
2019-05-18T06:18:12.229Z,99643.18
2019-05-18T06:20:50.855Z,99646.02
2019-05-18T06:23:09.232Z,99659.09
2019-05-18T06:25:36.888Z,99654.66
2019-05-18T06:28:04.537Z,99668.84
2019-05-18T06:30:32.231Z,99674.01
2019-05-18T06:32:59.976Z,99662.09
2019-05-18T06:35:27.689Z,99673.03
2019-05-18T06:37:55.452Z,99675.04
2019-05-18T06:40:23.144Z,99672.55
2019-05-18T06:42:50.780Z,99669.09
2019-05-18T06:45:18.430Z,99666.99
2019-05-18T06:47:48.411Z,99665.74
2019-05-18T06:50:15.486Z,99670.74
2019-05-18T06:52:43.172Z,99664.72
2019-05-18T06:55:10.827Z,99671.19
2019-05-18T06:57:38.477Z,99674.52
2019-05-18T07:00:06.132Z,99683.38
2019-05-18T07:02:33.815Z,99679.66
2019-05-18T07:05:01.499Z,99685.25
2019-05-18T07:07:29.236Z,99669.45
2019-05-18T07:09:56.894Z,99680.67
2019-05-18T07:12:24.539Z,99681.78
2019-05-18T07:14:52.192Z,99680.27
2019-05-18T07:17:19.836Z,99676.82
2019-05-18T07:19:47.497Z,99674.45
2019-05-18T07:22:15.187Z,99683.78
2019-05-18T07:24:42.884Z,99670.97
2019-05-18T07:27:10.540Z,99674.80
2019-05-18T07:29:38.194Z,99675.45
2019-05-18T07:32:05.827Z,99670.90
2019-05-18T07:34:33.493Z,99679.36
2019-05-18T07:37:01.208Z,99679.58
2019-05-18T07:39:29.060Z,99679.84
2019-05-18T07:41:56.712Z,99678.23
2019-05-18T07:44:24.367Z,99683.23
2019-05-18T07:46:52.019Z,99680.67
2019-05-18T07:49:19.683Z,99673.37
2019-05-18T07:51:47.320Z,99677.81
2019-05-18T07:54:14.977Z,99675.05
2019-05-18T07:56:42.627Z,99678.66
2019-05-18T07:59:10.289Z,99672.03
2019-05-18T08:01:37.953Z,99667.88
2019-05-18T08:04:05.598Z,99665.03
2019-05-18T08:06:33.279Z,99665.50
2019-05-18T08:09:01.024Z,99660.61
2019-05-18T08:11:28.846Z,99666.23
2019-05-18T08:13:56.488Z,99664.33
2019-05-18T08:16:24.144Z,99660.09
2019-05-18T08:18:51.814Z,99655.63
2019-05-18T08:21:19.465Z,99665.50
2019-05-18T08:23:47.108Z,99663.68
2019-05-18T08:26:14.861Z,99664.80
2019-05-18T08:28:42.631Z,99668.61
2019-05-18T08:31:10.284Z,99661.64
2019-05-18T08:33:38.028Z,99669.03
2019-05-18T08:36:05.687Z,99666.37
2019-05-18T08:38:33.428Z,99656.88
2019-05-18T08:41:01.121Z,99657.37
2019-05-18T08:43:28.831Z,99658.84
2019-05-18T08:45:56.629Z,99653.65
2019-05-18T08:48:24.308Z,99656.08
2019-05-18T08:50:51.976Z,99661.67
2019-05-18T08:53:19.629Z,99664.41
2019-05-18T08:55:47.395Z,99667.28
2019-05-18T08:58:15.062Z,99664.89
2019-05-18T09:00:42.712Z,99675.06
2019-05-18T09:03:10.360Z,99667.44
2019-05-18T09:05:38.020Z,99667.03
2019-05-18T09:08:05.673Z,99659.77
2019-05-18T09:10:33.323Z,99667.00
2019-05-18T09:13:00.986Z,99669.30
2019-05-18T09:15:28.633Z,99669.19
2019-05-18T09:17:56.280Z,99671.56
2019-05-18T09:20:23.925Z,99674.47
2019-05-18T09:22:51.584Z,99676.41
2019-05-18T09:25:19.276Z,99673.75
2019-05-18T09:27:46.990Z,99674.42
2019-05-18T09:30:14.667Z,99680.37
2019-05-18T09:32:42.517Z,99678.22
2019-05-18T09:35:10.168Z,99684.89
2019-05-18T09:37:37.824Z,99680.56
2019-05-18T09:40:05.477Z,99678.48
2019-05-18T09:42:33.131Z,99677.58
2019-05-18T09:45:00.903Z,99672.66
2019-05-18T09:47:28.736Z,99674.72
2019-05-18T09:49:56.574Z,99673.19
2019-05-18T09:52:43.531Z,99676.42
2019-05-18T09:54:53.577Z,99673.67
2019-05-18T09:57:21.265Z,99676.64
2019-05-18T09:59:49.164Z,99676.17
2019-05-18T10:02:17.006Z,99675.39
2019-05-18T10:04:44.685Z,99679.91
2019-05-18T10:07:12.380Z,99679.85
2019-05-18T10:09:40.068Z,99674.49
2019-05-18T10:12:07.803Z,99675.52
2019-05-18T10:14:35.500Z,99680.80
2019-05-18T10:17:03.217Z,99680.31
2019-05-18T10:19:31.000Z,99672.02
2019-05-18T10:21:58.709Z,99673.80
2019-05-18T10:24:26.349Z,99670.88
2019-05-18T10:26:54.005Z,99672.98
2019-05-18T10:29:21.678Z,99666.86
2019-05-18T10:31:49.335Z,99666.31
2019-05-18T10:34:16.976Z,99665.78
2019-05-18T10:36:44.641Z,99672.83
2019-05-18T10:39:25.417Z,99665.14
2019-05-18T10:41:53.143Z,99666.50
2019-05-18T10:44:20.780Z,99669.91
2019-05-18T10:46:48.470Z,99663.59
2019-05-18T10:49:16.116Z,99661.36
2019-05-18T10:51:43.777Z,99665.63
2019-05-18T10:54:11.460Z,99651.97
2019-05-18T10:56:39.110Z,99647.07
2019-05-18T10:59:06.755Z,99654.59
2019-05-18T11:01:34.417Z,99653.33
2019-05-18T11:04:02.079Z,99650.01
2019-05-18T11:06:30.309Z,99649.89
2019-05-18T11:08:58.168Z,99655.61
2019-05-18T11:11:25.816Z,99654.56
2019-05-18T11:13:53.517Z,99638.41
2019-05-18T11:16:21.170Z,99649.48
2019-05-18T11:18:48.837Z,99650.95
2019-05-18T11:21:16.486Z,99633.84
2019-05-18T11:23:47.866Z,99635.81
2019-05-18T11:26:14.103Z,99640.74
2019-05-18T11:28:41.784Z,99657.27
2019-05-18T11:31:09.427Z,99633.13
2019-05-18T11:33:37.142Z,99633.41
2019-05-18T11:36:04.824Z,99640.23
2019-05-18T11:38:32.485Z,99631.25
2019-05-18T11:41:00.248Z,99626.89
2019-05-18T11:43:27.957Z,99623.12
2019-05-18T11:45:55.596Z,99621.81
2019-05-18T11:48:23.340Z,99621.17
2019-05-18T11:50:50.992Z,99619.53
2019-05-18T11:53:18.659Z,99625.20
2019-05-18T11:55:46.376Z,99614.83
2019-05-18T11:58:14.396Z,99618.78
2019-05-18T12:00:42.058Z,99616.58
2019-05-18T12:03:09.800Z,99607.74
2019-05-18T12:05:37.447Z,99610.37
2019-05-18T12:08:05.147Z,99610.52
2019-05-18T12:10:32.792Z,99608.14
2019-05-18T12:13:00.457Z,99610.52
2019-05-18T12:15:28.202Z,99606.00
2019-05-18T12:17:55.948Z,99596.52
2019-05-18T12:20:23.602Z,99599.52
2019-05-18T12:22:51.325Z,99607.27
2019-05-18T12:25:19.090Z,99605.98
2019-05-18T12:27:46.889Z,99600.05
2019-05-18T12:30:14.855Z,99600.30
2019-05-18T12:32:42.535Z,99589.90
2019-05-18T12:35:10.186Z,99590.73
2019-05-18T12:37:37.827Z,99587.86
2019-05-18T12:40:05.499Z,99590.75
2019-05-18T12:42:33.230Z,99581.95
2019-05-18T12:45:01.115Z,99582.28
2019-05-18T12:47:28.860Z,99573.80
2019-05-18T12:49:56.607Z,99563.92
2019-05-18T12:52:24.284Z,99565.95
2019-05-18T12:54:51.932Z,99567.51
2019-05-18T12:57:19.579Z,99571.41
2019-05-18T12:59:47.325Z,99561.80
2019-05-18T13:02:15.341Z,99561.06
2019-05-18T13:04:43.160Z,99558.19
2019-05-18T13:07:10.819Z,99562.56
2019-05-18T13:09:38.482Z,99563.09
2019-05-18T13:12:06.129Z,99559.55
2019-05-18T13:14:33.792Z,99560.65
2019-05-18T13:17:01.461Z,99553.09
2019-05-18T13:19:29.116Z,99556.81
2019-05-18T13:21:56.781Z,99545.25
2019-05-18T13:24:24.531Z,99546.30
2019-05-18T13:26:52.332Z,99547.51
2019-05-18T13:29:20.170Z,99536.66
2019-05-18T13:31:47.811Z,99540.36
2019-05-18T13:34:15.551Z,99534.31
2019-05-18T13:36:43.208Z,99528.00
2019-05-18T13:39:10.872Z,99531.10
2019-05-18T13:41:38.566Z,99520.50
2019-05-18T13:44:06.390Z,99517.38
2019-05-18T13:46:34.043Z,99515.77
2019-05-18T13:49:01.674Z,99514.97
2019-05-18T13:51:29.493Z,99515.50
2019-05-18T13:53:57.441Z,99512.56
2019-05-18T13:56:25.110Z,99507.19
2019-05-18T13:58:53.020Z,99515.50
2019-05-18T14:01:20.718Z,99513.36
2019-05-18T14:03:48.437Z,99512.00
2019-05-18T14:06:16.451Z,99505.52
2019-05-18T14:08:44.216Z,99504.78
2019-05-18T14:11:12.093Z,99504.64
2019-05-18T14:13:39.885Z,99506.00
2019-05-18T14:16:07.632Z,99500.57
2019-05-18T14:18:35.303Z,99506.30
2019-05-18T14:21:02.951Z,99504.32
2019-05-18T14:23:30.612Z,99501.32
2019-05-18T14:25:58.268Z,99486.66
2019-05-18T14:28:25.933Z,99486.66
2019-05-18T14:30:53.589Z,99500.58
2019-05-18T14:33:21.299Z,99498.91
2019-05-18T14:35:49.190Z,99502.67
2019-05-18T14:38:16.854Z,99495.28
2019-05-18T14:40:44.530Z,99488.94
2019-05-18T14:43:12.194Z,99488.56
2019-05-18T14:45:39.922Z,99493.32
2019-05-18T14:48:07.765Z,99500.13
2019-05-18T14:50:35.516Z,99490.81
2019-05-18T14:53:03.183Z,99494.25
2019-05-18T14:55:33.605Z,99486.00
2019-05-18T14:58:00.296Z,99491.27
2019-05-18T15:00:27.991Z,99482.95
2019-05-18T15:02:55.856Z,99480.94
2019-05-18T15:05:23.515Z,99484.85
2019-05-18T15:07:51.159Z,99485.91
2019-05-18T15:10:18.833Z,99483.35
2019-05-18T15:12:46.483Z,99475.41
2019-05-18T15:15:14.363Z,99473.67
2019-05-18T15:17:42.188Z,99478.89
2019-05-18T15:20:10.167Z,99477.62
2019-05-18T15:22:37.925Z,99471.62
2019-05-18T15:25:05.601Z,99477.77
2019-05-18T15:27:33.270Z,99477.77
2019-05-18T15:30:00.921Z,99471.92
2019-05-18T15:32:28.595Z,99476.03
2019-05-18T15:34:56.263Z,99476.70
2019-05-18T15:37:23.937Z,99480.22
2019-05-18T15:39:51.645Z,99476.41
2019-05-18T15:42:19.531Z,99479.41
2019-05-18T15:44:47.311Z,99480.02
2019-05-18T15:47:14.977Z,99475.13
2019-05-18T15:49:42.637Z,99471.96
2019-05-18T15:52:10.342Z,99471.56
2019-05-18T15:54:38.050Z,99465.53
2019-05-18T15:57:05.865Z,99463.43
2019-05-18T15:59:33.684Z,99463.87
2019-05-18T16:02:06.105Z,99462.66
2019-05-18T16:04:30.825Z,99467.94
2019-05-18T16:06:58.488Z,99463.87
2019-05-18T16:09:26.195Z,99473.22
2019-05-18T16:11:54.127Z,99462.97
2019-05-18T16:14:21.820Z,99468.47
2019-05-18T16:16:54.412Z,99470.08
2019-05-18T16:19:18.933Z,99466.28
2019-05-18T16:21:46.601Z,99470.97
2019-05-18T16:24:14.264Z,99472.64
2019-05-18T16:26:41.921Z,99473.81
2019-05-18T16:29:09.663Z,99471.20
2019-05-18T16:31:37.317Z,99474.28
2019-05-18T16:34:04.994Z,99469.16
2019-05-18T16:36:32.667Z,99466.56
2019-05-18T16:39:00.324Z,99466.56
2019-05-18T16:41:27.985Z,99468.53
2019-05-18T16:43:55.833Z,99472.61
2019-05-18T16:46:23.674Z,99469.68
2019-05-18T16:48:51.341Z,99468.13
2019-05-18T16:51:19.007Z,99464.00
2019-05-18T16:53:50.068Z,99463.22
2019-05-18T16:56:16.045Z,99460.23
2019-05-18T16:58:43.724Z,99464.16
2019-05-18T17:01:11.393Z,99463.53
2019-05-18T17:03:39.154Z,99456.06
2019-05-18T17:06:07.141Z,99462.63
2019-05-18T17:08:34.868Z,99454.76
2019-05-18T17:11:02.525Z,99450.95
2019-05-18T17:13:30.176Z,99447.05
2019-05-18T17:15:57.835Z,99451.68
2019-05-18T17:18:25.553Z,99453.77
2019-05-18T17:20:53.208Z,99458.56
2019-05-18T17:23:20.929Z,99464.16
2019-05-18T17:25:48.663Z,99457.94
2019-05-18T17:28:16.332Z,99459.03
2019-05-18T17:30:43.985Z,99450.56
2019-05-18T17:33:11.673Z,99465.23
2019-05-18T17:35:39.403Z,99462.23
2019-05-18T17:38:07.270Z,99468.30
2019-05-18T17:40:35.068Z,99467.33
2019-05-18T17:43:02.795Z,99461.70
2019-05-18T17:45:30.487Z,99460.49
2019-05-18T17:47:58.208Z,99468.16
2019-05-18T17:50:25.861Z,99473.05
2019-05-18T17:52:53.574Z,99464.11
2019-05-18T17:55:21.389Z,99464.74
2019-05-18T17:57:49.053Z,99458.52
2019-05-18T18:00:16.713Z,99465.79
2019-05-18T18:02:44.349Z,99469.27
2019-05-18T18:05:12.008Z,99462.52
2019-05-18T18:07:39.655Z,99466.22
2019-05-18T18:10:07.719Z,99462.05
2019-05-18T18:12:35.592Z,99467.66
2019-05-18T18:15:03.261Z,99462.66
2019-05-18T18:17:31.087Z,99463.12
2019-05-18T18:19:58.744Z,99469.34
2019-05-18T18:22:26.417Z,99476.54
2019-05-18T18:24:54.103Z,99471.55
2019-05-18T18:27:25.124Z,99473.59
2019-05-18T18:29:51.144Z,99475.51
2019-05-18T18:32:18.814Z,99480.86
2019-05-18T18:34:46.472Z,99468.99
2019-05-18T18:37:14.133Z,99470.88
2019-05-18T18:39:41.788Z,99479.62
2019-05-18T18:42:09.479Z,99477.42
2019-05-18T18:44:37.193Z,99481.67
2019-05-18T18:47:04.866Z,99482.42
2019-05-18T18:49:32.540Z,99495.16
2019-05-18T18:52:00.429Z,99499.27
2019-05-18T18:54:28.120Z,99497.05
2019-05-18T18:56:56.102Z,99497.95
2019-05-18T18:59:23.752Z,99493.80
2019-05-18T19:01:51.411Z,99501.80
2019-05-18T19:04:19.158Z,99503.34
2019-05-18T19:06:46.814Z,99507.95
2019-05-18T19:09:14.489Z,99514.56
2019-05-18T19:11:42.144Z,99519.83
2019-05-18T19:14:09.804Z,99524.29
2019-05-18T19:16:37.452Z,99534.47
2019-05-18T19:19:05.120Z,99532.47
2019-05-18T19:21:32.784Z,99532.52
2019-05-18T19:24:00.467Z,99538.94
2019-05-18T19:26:28.327Z,99550.43
2019-05-18T19:28:56.096Z,99546.98
2019-05-18T19:31:23.749Z,99546.66
2019-05-18T19:33:51.403Z,99546.58
2019-05-18T19:36:19.261Z,99549.09
2019-05-18T19:38:47.005Z,99544.88
2019-05-18T19:41:14.844Z,99552.71
2019-05-18T19:43:42.584Z,99553.08
2019-05-18T19:46:10.282Z,99552.02
2019-05-18T19:48:37.942Z,99553.83
2019-05-18T19:51:05.595Z,99552.22
2019-05-18T19:53:33.248Z,99552.58
2019-05-18T19:56:00.935Z,99550.61
2019-05-18T19:58:28.596Z,99555.66
2019-05-18T20:00:56.248Z,99555.38
2019-05-18T20:03:23.934Z,99560.41
2019-05-18T20:05:51.597Z,99554.84
2019-05-18T20:08:19.279Z,99563.58
2019-05-18T20:10:46.938Z,99564.00
2019-05-18T20:13:14.675Z,99561.31
2019-05-18T20:15:42.422Z,99562.55
2019-05-18T20:18:10.351Z,99567.69
2019-05-18T20:20:37.998Z,99569.80
2019-05-18T20:23:08.190Z,99566.72
2019-05-18T20:25:35.005Z,99564.77
2019-05-18T20:28:02.692Z,99562.41
2019-05-18T20:30:30.487Z,99560.05
2019-05-18T20:32:58.178Z,99562.95
2019-05-18T20:35:26.022Z,99563.34
2019-05-18T20:37:53.806Z,99563.34
2019-05-18T20:40:21.557Z,99559.31
2019-05-18T20:42:49.317Z,99561.86
2019-05-18T20:45:17.107Z,99556.98
2019-05-18T20:47:44.802Z,99556.98
2019-05-18T20:50:12.536Z,99561.42
2019-05-18T20:52:40.212Z,99564.13
2019-05-18T20:55:07.885Z,99564.80
2019-05-18T20:57:35.543Z,99565.55
2019-05-18T21:00:03.249Z,99567.28
2019-05-18T21:02:30.938Z,99567.02
2019-05-18T21:04:58.592Z,99566.55
2019-05-18T21:07:26.322Z,99556.94
2019-05-18T21:09:54.151Z,99564.02
2019-05-18T21:12:21.800Z,99572.33
2019-05-18T21:14:49.465Z,99563.93
2019-05-18T21:17:17.132Z,99562.20
2019-05-18T21:19:44.785Z,99566.14
2019-05-18T21:22:12.548Z,99561.34
2019-05-18T21:24:40.303Z,99565.06
2019-05-18T21:27:07.956Z,99567.84
2019-05-18T21:29:35.620Z,99564.13
2019-05-18T21:32:03.388Z,99557.16
2019-05-18T21:34:31.041Z,99561.78
2019-05-18T21:36:58.797Z,99561.80
2019-05-18T21:39:26.556Z,99562.50
2019-05-18T21:41:54.264Z,99561.52
2019-05-18T21:44:21.932Z,99558.91
2019-05-18T21:46:49.584Z,99558.91
2019-05-18T21:49:17.249Z,99553.84
2019-05-18T21:51:45.008Z,99558.55
2019-05-18T21:54:12.741Z,99555.52
2019-05-18T21:56:40.461Z,99550.80
2019-05-18T21:59:11.871Z,99553.38
2019-05-18T22:01:37.592Z,99553.58
2019-05-18T22:04:05.345Z,99547.89
2019-05-18T22:06:33.226Z,99548.91
2019-05-18T22:09:01.122Z,99548.39
2019-05-18T22:11:28.876Z,99540.42
2019-05-18T22:13:56.733Z,99544.28
2019-05-18T22:16:24.480Z,99545.74
2019-05-18T22:18:52.156Z,99546.50
2019-05-18T22:21:19.824Z,99549.83
2019-05-18T22:23:47.472Z,99553.94
2019-05-18T22:26:15.147Z,99551.89
2019-05-18T22:28:42.880Z,99555.27
2019-05-18T22:31:10.562Z,99553.59
2019-05-18T22:33:38.192Z,99556.16
2019-05-18T22:36:05.857Z,99559.02
2019-05-18T22:38:33.522Z,99558.45
2019-05-18T22:41:01.404Z,99554.88
2019-05-18T22:43:29.271Z,99549.50
2019-05-18T22:45:56.963Z,99549.20
2019-05-18T22:48:38.921Z,99550.73
2019-05-18T22:50:54.009Z,99540.14
2019-05-18T22:53:21.739Z,99538.16
2019-05-18T22:55:49.538Z,99538.66
2019-05-18T22:58:17.321Z,99532.81
2019-05-18T23:00:44.995Z,99529.44
2019-05-18T23:03:12.658Z,99521.78
2019-05-18T23:05:40.444Z,99527.33
2019-05-18T23:08:08.164Z,99523.80
2019-05-18T23:10:35.922Z,99515.63
2019-05-18T23:13:03.662Z,99521.32
2019-05-18T23:15:31.345Z,99518.45
2019-05-18T23:17:59.004Z,99521.81
2019-05-18T23:20:26.676Z,99520.16
2019-05-18T23:22:54.327Z,99514.13
2019-05-18T23:25:22.004Z,99513.44
2019-05-18T23:27:49.668Z,99518.81
2019-05-18T23:30:17.327Z,99518.80
2019-05-18T23:32:44.985Z,99519.80
2019-05-18T23:35:12.923Z,99519.64
2019-05-18T23:37:40.983Z,99516.30
2019-05-18T23:40:08.641Z,99518.81
2019-05-18T23:42:36.567Z,99519.50
2019-05-18T23:45:04.213Z,99513.11
2019-05-18T23:47:31.868Z,99510.61
2019-05-18T23:49:59.690Z,99510.44
2019-05-18T23:52:27.477Z,99499.37
2019-05-18T23:54:55.124Z,99499.37
2019-05-18T23:57:22.787Z,99508.76
2019-05-18T23:59:50.444Z,99510.08
